sensor_id;sensor_type;location;lat;lon;timestamp;P1;durP1;ratioP1;P2;durP2;ratioP2
18265;SDS011;9259;48.194;16.322;2023-07-13T00:01:05;3.45;;;1.15;;
18265;SDS011;9259;48.194;16.322;2023-07-13T00:03:33;4.75;;;1.45;;
18265;SDS011;9259;48.194;16.322;2023-07-13T00:06:01;5.22;;;1.40;;
18265;SDS011;9259;48.194;16.322;2023-07-13T00:08:30;1.60;;;0.98;;
18265;SDS011;9259;48.194;16.322;2023-07-13T00:10:59;4.10;;;1.08;;
18265;SDS011;9259;48.194;16.322;2023-07-13T00:13:29;1.75;;;0.95;;
18265;SDS011;9259;48.194;16.322;2023-07-13T00:15:58;5.30;;;1.33;;
18265;SDS011;9259;48.194;16.322;2023-07-13T00:18:26;1.13;;;0.82;;
18265;SDS011;9259;48.194;16.322;2023-07-13T00:20:55;4.22;;;1.00;;
18265;SDS011;9259;48.194;16.322;2023-07-13T00:23:30;2.83;;;0.90;;
18265;SDS011;9259;48.194;16.322;2023-07-13T00:25:59;1.42;;;0.70;;
18265;SDS011;9259;48.194;16.322;2023-07-13T00:28:29;1.23;;;0.68;;
18265;SDS011;9259;48.194;16.322;2023-07-13T00:30:57;1.77;;;0.68;;
18265;SDS011;9259;48.194;16.322;2023-07-13T00:33:26;1.30;;;0.90;;
18265;SDS011;9259;48.194;16.322;2023-07-13T00:35:54;1.25;;;0.80;;
18265;SDS011;9259;48.194;16.322;2023-07-13T00:38:23;2.72;;;1.02;;
18265;SDS011;9259;48.194;16.322;2023-07-13T00:40:51;2.25;;;1.00;;
18265;SDS011;9259;48.194;16.322;2023-07-13T00:43:20;2.30;;;0.68;;
18265;SDS011;9259;48.194;16.322;2023-07-13T00:48:42;1.42;;;0.73;;
18265;SDS011;9259;48.194;16.322;2023-07-13T00:51:11;1.48;;;0.90;;
18265;SDS011;9259;48.194;16.322;2023-07-13T00:53:39;1.90;;;0.90;;
18265;SDS011;9259;48.194;16.322;2023-07-13T00:56:08;0.98;;;0.77;;
18265;SDS011;9259;48.194;16.322;2023-07-13T00:58:36;2.15;;;0.80;;
18265;SDS011;9259;48.194;16.322;2023-07-13T01:01:04;2.83;;;0.80;;
18265;SDS011;9259;48.194;16.322;2023-07-13T01:03:33;1.10;;;0.68;;
18265;SDS011;9259;48.194;16.322;2023-07-13T01:06:03;1.00;;;0.70;;
18265;SDS011;9259;48.194;16.322;2023-07-13T01:08:31;1.80;;;0.82;;
18265;SDS011;9259;48.194;16.322;2023-07-13T01:10:59;1.85;;;0.80;;
18265;SDS011;9259;48.194;16.322;2023-07-13T01:13:27;1.58;;;0.65;;
18265;SDS011;9259;48.194;16.322;2023-07-13T01:15:55;1.42;;;0.80;;
18265;SDS011;9259;48.194;16.322;2023-07-13T01:18:26;1.40;;;0.60;;
18265;SDS011;9259;48.194;16.322;2023-07-13T01:20:56;1.73;;;0.77;;
18265;SDS011;9259;48.194;16.322;2023-07-13T01:23:28;0.95;;;0.70;;
18265;SDS011;9259;48.194;16.322;2023-07-13T01:25:56;1.30;;;0.57;;
18265;SDS011;9259;48.194;16.322;2023-07-13T01:28:27;1.50;;;0.80;;
18265;SDS011;9259;48.194;16.322;2023-07-13T01:30:56;1.92;;;0.60;;
18265;SDS011;9259;48.194;16.322;2023-07-13T01:33:25;0.93;;;0.82;;
18265;SDS011;9259;48.194;16.322;2023-07-13T01:35:53;1.75;;;0.70;;
18265;SDS011;9259;48.194;16.322;2023-07-13T01:38:23;0.60;;;0.50;;
18265;SDS011;9259;48.194;16.322;2023-07-13T01:40:51;1.02;;;0.68;;
18265;SDS011;9259;48.194;16.322;2023-07-13T01:43:20;0.68;;;0.60;;
18265;SDS011;9259;48.194;16.322;2023-07-13T01:45:48;2.83;;;0.70;;
18265;SDS011;9259;48.194;16.322;2023-07-13T01:48:16;2.42;;;0.55;;
18265;SDS011;9259;48.194;16.322;2023-07-13T01:50:47;1.05;;;0.70;;
18265;SDS011;9259;48.194;16.322;2023-07-13T01:53:17;1.02;;;0.70;;
18265;SDS011;9259;48.194;16.322;2023-07-13T01:55:45;1.10;;;0.70;;
18265;SDS011;9259;48.194;16.322;2023-07-13T01:58:13;2.03;;;0.70;;
18265;SDS011;9259;48.194;16.322;2023-07-13T02:00:41;2.50;;;0.70;;
18265;SDS011;9259;48.194;16.322;2023-07-13T02:03:09;0.82;;;0.63;;
18265;SDS011;9259;48.194;16.322;2023-07-13T02:05:37;1.30;;;0.73;;
18265;SDS011;9259;48.194;16.322;2023-07-13T02:08:05;0.65;;;0.55;;
18265;SDS011;9259;48.194;16.322;2023-07-13T02:10:34;2.28;;;0.90;;
18265;SDS011;9259;48.194;16.322;2023-07-13T02:13:03;1.85;;;0.88;;
18265;SDS011;9259;48.194;16.322;2023-07-13T02:15:32;2.55;;;0.75;;
18265;SDS011;9259;48.194;16.322;2023-07-13T02:18:00;3.00;;;0.90;;
18265;SDS011;9259;48.194;16.322;2023-07-13T02:20:29;2.65;;;0.95;;
18265;SDS011;9259;48.194;16.322;2023-07-13T02:22:57;3.25;;;0.70;;
18265;SDS011;9259;48.194;16.322;2023-07-13T02:25:28;3.50;;;0.85;;
18265;SDS011;9259;48.194;16.322;2023-07-13T02:27:57;1.42;;;0.80;;
18265;SDS011;9259;48.194;16.322;2023-07-13T02:30:26;1.70;;;0.82;;
18265;SDS011;9259;48.194;16.322;2023-07-13T02:32:55;2.03;;;1.05;;
18265;SDS011;9259;48.194;16.322;2023-07-13T02:35:23;1.85;;;1.13;;
18265;SDS011;9259;48.194;16.322;2023-07-13T02:37:51;1.80;;;1.00;;
18265;SDS011;9259;48.194;16.322;2023-07-13T02:40:19;3.97;;;0.73;;
18265;SDS011;9259;48.194;16.322;2023-07-13T02:42:47;2.25;;;1.00;;
18265;SDS011;9259;48.194;16.322;2023-07-13T02:45:17;1.52;;;0.70;;
18265;SDS011;9259;48.194;16.322;2023-07-13T02:47:45;2.88;;;1.05;;
18265;SDS011;9259;48.194;16.322;2023-07-13T02:50:13;1.63;;;0.88;;
18265;SDS011;9259;48.194;16.322;2023-07-13T02:52:41;1.08;;;0.75;;
18265;SDS011;9259;48.194;16.322;2023-07-13T02:55:09;1.67;;;0.88;;
18265;SDS011;9259;48.194;16.322;2023-07-13T02:57:37;2.13;;;0.90;;
18265;SDS011;9259;48.194;16.322;2023-07-13T03:00:07;2.00;;;1.10;;
18265;SDS011;9259;48.194;16.322;2023-07-13T03:02:37;1.60;;;1.02;;
18265;SDS011;9259;48.194;16.322;2023-07-13T03:05:05;2.15;;;1.10;;
18265;SDS011;9259;48.194;16.322;2023-07-13T03:07:33;0.85;;;0.65;;
18265;SDS011;9259;48.194;16.322;2023-07-13T03:10:03;1.85;;;0.80;;
18265;SDS011;9259;48.194;16.322;2023-07-13T03:12:32;1.95;;;1.00;;
18265;SDS011;9259;48.194;16.322;2023-07-13T03:15:00;1.08;;;0.88;;
18265;SDS011;9259;48.194;16.322;2023-07-13T03:17:28;2.88;;;0.80;;
18265;SDS011;9259;48.194;16.322;2023-07-13T03:19:58;0.88;;;0.70;;
18265;SDS011;9259;48.194;16.322;2023-07-13T03:22:26;1.23;;;0.90;;
18265;SDS011;9259;48.194;16.322;2023-07-13T03:24:54;3.10;;;0.98;;
18265;SDS011;9259;48.194;16.322;2023-07-13T03:27:23;3.25;;;0.90;;
18265;SDS011;9259;48.194;16.322;2023-07-13T03:29:51;3.80;;;0.95;;
18265;SDS011;9259;48.194;16.322;2023-07-13T03:32:19;2.15;;;0.93;;
18265;SDS011;9259;48.194;16.322;2023-07-13T03:34:46;2.85;;;1.05;;
18265;SDS011;9259;48.194;16.322;2023-07-13T03:37:16;3.78;;;1.10;;
18265;SDS011;9259;48.194;16.322;2023-07-13T03:39:44;2.42;;;1.08;;
18265;SDS011;9259;48.194;16.322;2023-07-13T03:42:13;1.75;;;1.30;;
18265;SDS011;9259;48.194;16.322;2023-07-13T03:44:41;3.40;;;1.10;;
18265;SDS011;9259;48.194;16.322;2023-07-13T03:47:11;1.85;;;0.90;;
18265;SDS011;9259;48.194;16.322;2023-07-13T03:49:39;3.40;;;0.88;;
18265;SDS011;9259;48.194;16.322;2023-07-13T03:52:07;1.42;;;1.17;;
18265;SDS011;9259;48.194;16.322;2023-07-13T03:54:37;4.05;;;1.20;;
18265;SDS011;9259;48.194;16.322;2023-07-13T03:57:05;2.22;;;1.20;;
18265;SDS011;9259;48.194;16.322;2023-07-13T03:59:33;3.60;;;0.93;;
18265;SDS011;9259;48.194;16.322;2023-07-13T04:02:03;4.43;;;1.33;;
18265;SDS011;9259;48.194;16.322;2023-07-13T04:04:31;3.17;;;1.40;;
18265;SDS011;9259;48.194;16.322;2023-07-13T04:06:59;2.75;;;1.00;;
18265;SDS011;9259;48.194;16.322;2023-07-13T04:09:27;2.22;;;1.10;;
18265;SDS011;9259;48.194;16.322;2023-07-13T04:11:56;2.42;;;1.27;;
18265;SDS011;9259;48.194;16.322;2023-07-13T04:14:25;3.40;;;1.17;;
18265;SDS011;9259;48.194;16.322;2023-07-13T04:16:53;2.63;;;1.20;;
18265;SDS011;9259;48.194;16.322;2023-07-13T04:19:21;1.70;;;1.10;;
18265;SDS011;9259;48.194;16.322;2023-07-13T04:21:49;3.42;;;1.10;;
18265;SDS011;9259;48.194;16.322;2023-07-13T04:24:18;1.80;;;1.17;;
18265;SDS011;9259;48.194;16.322;2023-07-13T04:26:46;1.60;;;1.08;;
18265;SDS011;9259;48.194;16.322;2023-07-13T04:29:16;1.75;;;1.30;;
18265;SDS011;9259;48.194;16.322;2023-07-13T04:31:45;2.85;;;1.30;;
18265;SDS011;9259;48.194;16.322;2023-07-13T04:34:13;4.20;;;1.30;;
18265;SDS011;9259;48.194;16.322;2023-07-13T04:36:42;3.13;;;1.30;;
18265;SDS011;9259;48.194;16.322;2023-07-13T04:39:10;2.25;;;1.45;;
18265;SDS011;9259;48.194;16.322;2023-07-13T04:41:38;3.47;;;1.27;;
18265;SDS011;9259;48.194;16.322;2023-07-13T04:44:06;2.55;;;1.45;;
18265;SDS011;9259;48.194;16.322;2023-07-13T04:46:35;4.68;;;1.40;;
18265;SDS011;9259;48.194;16.322;2023-07-13T04:49:04;2.25;;;1.10;;
18265;SDS011;9259;48.194;16.322;2023-07-13T04:51:34;2.58;;;1.30;;
18265;SDS011;9259;48.194;16.322;2023-07-13T04:54:02;4.35;;;1.42;;
18265;SDS011;9259;48.194;16.322;2023-07-13T04:56:33;2.15;;;1.05;;
18265;SDS011;9259;48.194;16.322;2023-07-13T04:59:01;2.33;;;1.08;;
18265;SDS011;9259;48.194;16.322;2023-07-13T05:01:29;3.00;;;1.20;;
18265;SDS011;9259;48.194;16.322;2023-07-13T05:03:58;1.70;;;0.90;;
18265;SDS011;9259;48.194;16.322;2023-07-13T05:06:26;2.00;;;1.13;;
18265;SDS011;9259;48.194;16.322;2023-07-13T05:08:56;2.13;;;1.05;;
18265;SDS011;9259;48.194;16.322;2023-07-13T05:11:24;1.15;;;0.80;;
18265;SDS011;9259;48.194;16.322;2023-07-13T05:13:52;1.40;;;0.88;;
18265;SDS011;9259;48.194;16.322;2023-07-13T05:16:20;2.10;;;1.05;;
18265;SDS011;9259;48.194;16.322;2023-07-13T05:18:48;1.98;;;0.90;;
18265;SDS011;9259;48.194;16.322;2023-07-13T05:21:17;1.17;;;0.80;;
18265;SDS011;9259;48.194;16.322;2023-07-13T05:23:47;3.30;;;1.20;;
18265;SDS011;9259;48.194;16.322;2023-07-13T05:26:15;2.33;;;0.70;;
18265;SDS011;9259;48.194;16.322;2023-07-13T05:28:43;1.80;;;0.80;;
18265;SDS011;9259;48.194;16.322;2023-07-13T05:31:12;1.92;;;1.15;;
18265;SDS011;9259;48.194;16.322;2023-07-13T05:33:40;3.10;;;0.80;;
18265;SDS011;9259;48.194;16.322;2023-07-13T05:36:08;2.60;;;0.80;;
18265;SDS011;9259;48.194;16.322;2023-07-13T05:38:37;1.95;;;0.90;;
18265;SDS011;9259;48.194;16.322;2023-07-13T05:41:05;0.88;;;0.55;;
18265;SDS011;9259;48.194;16.322;2023-07-13T05:43:34;1.20;;;0.57;;
18265;SDS011;9259;48.194;16.322;2023-07-13T05:46:02;1.63;;;0.80;;
18265;SDS011;9259;48.194;16.322;2023-07-13T05:48:30;1.73;;;0.80;;
18265;SDS011;9259;48.194;16.322;2023-07-13T05:50:58;1.63;;;1.10;;
18265;SDS011;9259;48.194;16.322;2023-07-13T05:53:28;1.02;;;0.80;;
18265;SDS011;9259;48.194;16.322;2023-07-13T05:55:57;2.08;;;1.10;;
18265;SDS011;9259;48.194;16.322;2023-07-13T05:58:25;1.55;;;1.00;;
18265;SDS011;9259;48.194;16.322;2023-07-13T06:00:58;2.22;;;1.10;;
18265;SDS011;9259;48.194;16.322;2023-07-13T06:03:27;3.58;;;1.00;;
18265;SDS011;9259;48.194;16.322;2023-07-13T06:05:55;3.30;;;1.10;;
18265;SDS011;9259;48.194;16.322;2023-07-13T06:08:25;1.90;;;0.90;;
18265;SDS011;9259;48.194;16.322;2023-07-13T06:10:54;1.67;;;1.05;;
18265;SDS011;9259;48.194;16.322;2023-07-13T06:13:27;2.00;;;0.90;;
18265;SDS011;9259;48.194;16.322;2023-07-13T06:15:54;3.33;;;1.33;;
18265;SDS011;9259;48.194;16.322;2023-07-13T06:18:22;3.33;;;0.80;;
18265;SDS011;9259;48.194;16.322;2023-07-13T06:20:51;2.53;;;1.00;;
18265;SDS011;9259;48.194;16.322;2023-07-13T06:23:19;1.65;;;1.05;;
18265;SDS011;9259;48.194;16.322;2023-07-13T06:25:47;1.52;;;0.82;;
18265;SDS011;9259;48.194;16.322;2023-07-13T06:28:15;1.30;;;0.85;;
18265;SDS011;9259;48.194;16.322;2023-07-13T06:30:44;1.27;;;0.75;;
18265;SDS011;9259;48.194;16.322;2023-07-13T06:33:12;1.27;;;0.75;;
18265;SDS011;9259;48.194;16.322;2023-07-13T06:35:40;1.98;;;0.77;;
18265;SDS011;9259;48.194;16.322;2023-07-13T06:38:09;4.53;;;1.00;;
18265;SDS011;9259;48.194;16.322;2023-07-13T06:40:37;1.65;;;0.68;;
18265;SDS011;9259;48.194;16.322;2023-07-13T06:43:05;3.33;;;0.93;;
18265;SDS011;9259;48.194;16.322;2023-07-13T06:45:35;1.42;;;0.93;;
18265;SDS011;9259;48.194;16.322;2023-07-13T06:48:08;0.80;;;0.70;;
18265;SDS011;9259;48.194;16.322;2023-07-13T06:50:36;4.03;;;1.13;;
18265;SDS011;9259;48.194;16.322;2023-07-13T06:53:04;3.03;;;1.05;;
18265;SDS011;9259;48.194;16.322;2023-07-13T06:55:32;3.05;;;1.02;;
18265;SDS011;9259;48.194;16.322;2023-07-13T06:58:00;3.40;;;0.85;;
18265;SDS011;9259;48.194;16.322;2023-07-13T07:00:28;1.42;;;0.90;;
18265;SDS011;9259;48.194;16.322;2023-07-13T07:02:56;2.10;;;0.90;;
18265;SDS011;9259;48.194;16.322;2023-07-13T07:05:26;4.22;;;1.08;;
18265;SDS011;9259;48.194;16.322;2023-07-13T07:07:54;2.35;;;1.17;;
18265;SDS011;9259;48.194;16.322;2023-07-13T07:10:23;2.17;;;0.95;;
18265;SDS011;9259;48.194;16.322;2023-07-13T07:12:51;1.10;;;0.73;;
18265;SDS011;9259;48.194;16.322;2023-07-13T07:15:19;1.23;;;0.70;;
18265;SDS011;9259;48.194;16.322;2023-07-13T07:17:47;2.67;;;0.85;;
18265;SDS011;9259;48.194;16.322;2023-07-13T07:20:15;1.10;;;0.55;;
18265;SDS011;9259;48.194;16.322;2023-07-13T07:22:44;1.30;;;0.63;;
18265;SDS011;9259;48.194;16.322;2023-07-13T07:25:12;3.00;;;0.70;;
18265;SDS011;9259;48.194;16.322;2023-07-13T07:27:40;1.17;;;0.73;;
18265;SDS011;9259;48.194;16.322;2023-07-13T07:30:09;1.40;;;0.70;;
18265;SDS011;9259;48.194;16.322;2023-07-13T07:32:37;2.35;;;1.17;;
18265;SDS011;9259;48.194;16.322;2023-07-13T07:35:06;1.42;;;0.70;;
18265;SDS011;9259;48.194;16.322;2023-07-13T07:37:34;2.17;;;0.80;;
18265;SDS011;9259;48.194;16.322;2023-07-13T07:40:04;1.63;;;0.82;;
18265;SDS011;9259;48.194;16.322;2023-07-13T07:42:33;1.20;;;0.73;;
18265;SDS011;9259;48.194;16.322;2023-07-13T07:45:01;2.90;;;0.80;;
18265;SDS011;9259;48.194;16.322;2023-07-13T07:47:30;2.83;;;0.60;;
18265;SDS011;9259;48.194;16.322;2023-07-13T07:49:58;1.50;;;0.88;;
18265;SDS011;9259;48.194;16.322;2023-07-13T07:52:26;1.13;;;0.70;;
18265;SDS011;9259;48.194;16.322;2023-07-13T07:54:54;1.75;;;0.85;;
18265;SDS011;9259;48.194;16.322;2023-07-13T07:57:23;1.02;;;0.70;;
18265;SDS011;9259;48.194;16.322;2023-07-13T07:59:51;1.52;;;0.60;;
18265;SDS011;9259;48.194;16.322;2023-07-13T08:02:19;1.80;;;0.88;;
18265;SDS011;9259;48.194;16.322;2023-07-13T08:04:47;1.35;;;0.80;;
18265;SDS011;9259;48.194;16.322;2023-07-13T08:07:15;1.25;;;0.77;;
18265;SDS011;9259;48.194;16.322;2023-07-13T08:09:43;1.20;;;0.70;;
18265;SDS011;9259;48.194;16.322;2023-07-13T08:12:12;1.80;;;0.82;;
18265;SDS011;9259;48.194;16.322;2023-07-13T08:14:41;1.85;;;0.70;;
18265;SDS011;9259;48.194;16.322;2023-07-13T08:17:09;2.60;;;0.82;;
18265;SDS011;9259;48.194;16.322;2023-07-13T08:19:37;1.20;;;0.70;;
18265;SDS011;9259;48.194;16.322;2023-07-13T08:22:05;1.10;;;0.70;;
18265;SDS011;9259;48.194;16.322;2023-07-13T08:24:33;3.35;;;0.85;;
18265;SDS011;9259;48.194;16.322;2023-07-13T08:27:01;1.42;;;0.93;;
18265;SDS011;9259;48.194;16.322;2023-07-13T08:29:30;1.02;;;0.65;;
18265;SDS011;9259;48.194;16.322;2023-07-13T08:32:01;1.13;;;0.80;;
18265;SDS011;9259;48.194;16.322;2023-07-13T08:34:30;1.60;;;0.73;;
18265;SDS011;9259;48.194;16.322;2023-07-13T08:36:58;1.50;;;1.00;;
18265;SDS011;9259;48.194;16.322;2023-07-13T08:39:26;2.20;;;0.90;;
18265;SDS011;9259;48.194;16.322;2023-07-13T08:41:56;3.85;;;1.33;;
18265;SDS011;9259;48.194;16.322;2023-07-13T08:44:28;1.92;;;0.82;;
18265;SDS011;9259;48.194;16.322;2023-07-13T08:47:03;2.13;;;0.90;;
18265;SDS011;9259;48.194;16.322;2023-07-13T08:49:31;3.42;;;1.05;;
18265;SDS011;9259;48.194;16.322;2023-07-13T08:52:02;2.63;;;0.93;;
18265;SDS011;9259;48.194;16.322;2023-07-13T08:54:36;1.50;;;1.00;;
18265;SDS011;9259;48.194;16.322;2023-07-13T08:57:10;1.05;;;0.77;;
18265;SDS011;9259;48.194;16.322;2023-07-13T08:59:40;4.03;;;1.20;;
18265;SDS011;9259;48.194;16.322;2023-07-13T09:02:18;1.92;;;1.40;;
18265;SDS011;9259;48.194;16.322;2023-07-13T09:04:54;2.35;;;1.50;;
18265;SDS011;9259;48.194;16.322;2023-07-13T09:07:26;3.65;;;1.60;;
18265;SDS011;9259;48.194;16.322;2023-07-13T09:10:03;2.30;;;1.48;;
18265;SDS011;9259;48.194;16.322;2023-07-13T09:12:40;3.50;;;1.80;;
18265;SDS011;9259;48.194;16.322;2023-07-13T09:15:24;3.05;;;1.50;;
18265;SDS011;9259;48.194;16.322;2023-07-13T09:17:59;2.35;;;1.60;;
18265;SDS011;9259;48.194;16.322;2023-07-13T09:20:31;4.22;;;1.80;;
18265;SDS011;9259;48.194;16.322;2023-07-13T09:23:03;3.75;;;1.52;;
18265;SDS011;9259;48.194;16.322;2023-07-13T09:25:33;3.45;;;1.95;;
18265;SDS011;9259;48.194;16.322;2023-07-13T09:28:03;2.42;;;1.35;;
18265;SDS011;9259;48.194;16.322;2023-07-13T09:30:38;6.70;;;1.45;;
18265;SDS011;9259;48.194;16.322;2023-07-13T09:33:11;3.22;;;1.63;;
18265;SDS011;9259;48.194;16.322;2023-07-13T09:35:40;4.35;;;1.83;;
18265;SDS011;9259;48.194;16.322;2023-07-13T09:38:11;1.92;;;1.50;;
18265;SDS011;9259;48.194;16.322;2023-07-13T09:41:00;3.22;;;1.77;;
18265;SDS011;9259;48.194;16.322;2023-07-13T09:43:36;5.38;;;1.80;;
18265;SDS011;9259;48.194;16.322;2023-07-13T09:46:07;2.25;;;1.40;;
18265;SDS011;9259;48.194;16.322;2023-07-13T09:48:49;2.55;;;1.80;;
18265;SDS011;9259;48.194;16.322;2023-07-13T09:51:20;3.80;;;1.73;;
18265;SDS011;9259;48.194;16.322;2023-07-13T09:53:48;2.25;;;1.63;;
18265;SDS011;9259;48.194;16.322;2023-07-13T09:56:20;2.92;;;1.63;;
18265;SDS011;9259;48.194;16.322;2023-07-13T09:58:49;3.63;;;1.70;;
18265;SDS011;9259;48.194;16.322;2023-07-13T10:01:17;3.60;;;1.90;;
18265;SDS011;9259;48.194;16.322;2023-07-13T10:04:00;3.75;;;1.70;;
18265;SDS011;9259;48.194;16.322;2023-07-13T10:06:29;1.75;;;1.58;;
18265;SDS011;9259;48.194;16.322;2023-07-13T10:08:57;2.63;;;1.48;;
18265;SDS011;9259;48.194;16.322;2023-07-13T10:11:26;3.22;;;1.73;;
18265;SDS011;9259;48.194;16.322;2023-07-13T10:13:56;4.60;;;1.92;;
18265;SDS011;9259;48.194;16.322;2023-07-13T10:16:26;3.92;;;2.15;;
18265;SDS011;9259;48.194;16.322;2023-07-13T10:18:58;3.83;;;1.88;;
18265;SDS011;9259;48.194;16.322;2023-07-13T10:21:33;3.47;;;1.80;;
18265;SDS011;9259;48.194;16.322;2023-07-13T10:24:09;8.10;;;2.00;;
18265;SDS011;9259;48.194;16.322;2023-07-13T10:26:39;2.50;;;1.70;;
18265;SDS011;9259;48.194;16.322;2023-07-13T10:29:14;2.60;;;2.08;;
18265;SDS011;9259;48.194;16.322;2023-07-13T10:31:44;4.60;;;2.00;;
18265;SDS011;9259;48.194;16.322;2023-07-13T10:34:13;2.47;;;1.77;;
18265;SDS011;9259;48.194;16.322;2023-07-13T10:36:43;3.30;;;1.83;;
18265;SDS011;9259;48.194;16.322;2023-07-13T10:39:14;2.78;;;2.00;;
18265;SDS011;9259;48.194;16.322;2023-07-13T10:41:44;4.90;;;1.83;;
18265;SDS011;9259;48.194;16.322;2023-07-13T10:44:17;2.97;;;1.70;;
18265;SDS011;9259;48.194;16.322;2023-07-13T10:46:51;2.78;;;1.67;;
18265;SDS011;9259;48.194;16.322;2023-07-13T10:49:25;4.10;;;1.75;;
18265;SDS011;9259;48.194;16.322;2023-07-13T10:51:54;6.07;;;2.00;;
18265;SDS011;9259;48.194;16.322;2023-07-13T10:54:26;6.63;;;2.25;;
18265;SDS011;9259;48.194;16.322;2023-07-13T10:57:07;5.03;;;2.20;;
18265;SDS011;9259;48.194;16.322;2023-07-13T10:59:42;3.97;;;1.95;;
18265;SDS011;9259;48.194;16.322;2023-07-13T11:02:15;3.63;;;2.05;;
18265;SDS011;9259;48.194;16.322;2023-07-13T11:04:54;3.30;;;1.85;;
18265;SDS011;9259;48.194;16.322;2023-07-13T11:07:25;8.68;;;1.83;;
18265;SDS011;9259;48.194;16.322;2023-07-13T11:09:54;4.03;;;1.80;;
18265;SDS011;9259;48.194;16.322;2023-07-13T11:12:28;1.90;;;1.50;;
18265;SDS011;9259;48.194;16.322;2023-07-13T11:15:15;3.70;;;1.65;;
18265;SDS011;9259;48.194;16.322;2023-07-13T11:17:56;2.33;;;1.80;;
18265;SDS011;9259;48.194;16.322;2023-07-13T11:20:35;3.17;;;1.85;;
18265;SDS011;9259;48.194;16.322;2023-07-13T11:23:09;2.97;;;1.90;;
18265;SDS011;9259;48.194;16.322;2023-07-13T11:25:48;4.38;;;1.85;;
18265;SDS011;9259;48.194;16.322;2023-07-13T11:28:17;3.10;;;1.60;;
18265;SDS011;9259;48.194;16.322;2023-07-13T11:30:49;2.80;;;1.60;;
18265;SDS011;9259;48.194;16.322;2023-07-13T11:33:28;3.80;;;1.70;;
18265;SDS011;9259;48.194;16.322;2023-07-13T11:36:00;3.55;;;1.98;;
18265;SDS011;9259;48.194;16.322;2023-07-13T11:38:32;3.35;;;1.90;;
18265;SDS011;9259;48.194;16.322;2023-07-13T11:41:04;4.05;;;1.98;;
18265;SDS011;9259;48.194;16.322;2023-07-13T11:43:33;2.10;;;1.55;;
18265;SDS011;9259;48.194;16.322;2023-07-13T11:46:14;3.55;;;1.77;;
18265;SDS011;9259;48.194;16.322;2023-07-13T11:48:43;3.13;;;1.45;;
18265;SDS011;9259;48.194;16.322;2023-07-13T11:51:16;5.25;;;1.60;;
18265;SDS011;9259;48.194;16.322;2023-07-13T11:53:49;3.28;;;1.55;;
18265;SDS011;9259;48.194;16.322;2023-07-13T11:56:21;2.97;;;1.48;;
18265;SDS011;9259;48.194;16.322;2023-07-13T11:58:51;3.78;;;1.40;;
18265;SDS011;9259;48.194;16.322;2023-07-13T12:01:22;1.50;;;1.40;;
18265;SDS011;9259;48.194;16.322;2023-07-13T12:03:51;2.05;;;1.33;;
18265;SDS011;9259;48.194;16.322;2023-07-13T12:06:26;2.25;;;1.75;;
18265;SDS011;9259;48.194;16.322;2023-07-13T12:08:58;2.83;;;1.23;;
18265;SDS011;9259;48.194;16.322;2023-07-13T12:11:40;2.95;;;1.63;;
18265;SDS011;9259;48.194;16.322;2023-07-13T12:14:12;3.10;;;1.40;;
18265;SDS011;9259;48.194;16.322;2023-07-13T12:16:42;2.15;;;1.55;;
18265;SDS011;9259;48.194;16.322;2023-07-13T12:19:14;4.80;;;1.67;;
18265;SDS011;9259;48.194;16.322;2023-07-13T12:21:46;3.78;;;1.77;;
18265;SDS011;9259;48.194;16.322;2023-07-13T12:24:15;4.22;;;1.60;;
18265;SDS011;9259;48.194;16.322;2023-07-13T12:26:44;2.03;;;1.30;;
18265;SDS011;9259;48.194;16.322;2023-07-13T12:29:20;2.08;;;1.60;;
18265;SDS011;9259;48.194;16.322;2023-07-13T12:31:48;2.53;;;1.63;;
18265;SDS011;9259;48.194;16.322;2023-07-13T12:34:19;3.08;;;1.77;;
18265;SDS011;9259;48.194;16.322;2023-07-13T12:36:50;3.72;;;1.65;;
18265;SDS011;9259;48.194;16.322;2023-07-13T12:39:20;4.47;;;1.40;;
18265;SDS011;9259;48.194;16.322;2023-07-13T12:41:52;2.70;;;1.55;;
18265;SDS011;9259;48.194;16.322;2023-07-13T12:44:22;2.35;;;1.48;;
18265;SDS011;9259;48.194;16.322;2023-07-13T12:46:57;3.95;;;1.60;;
18265;SDS011;9259;48.194;16.322;2023-07-13T12:49:31;2.22;;;1.60;;
18265;SDS011;9259;48.194;16.322;2023-07-13T12:52:03;2.10;;;1.60;;
18265;SDS011;9259;48.194;16.322;2023-07-13T12:54:38;2.58;;;1.58;;
18265;SDS011;9259;48.194;16.322;2023-07-13T12:57:08;1.90;;;1.50;;
18265;SDS011;9259;48.194;16.322;2023-07-13T12:59:40;4.40;;;1.60;;
18265;SDS011;9259;48.194;16.322;2023-07-13T13:02:17;2.63;;;1.70;;
18265;SDS011;9259;48.194;16.322;2023-07-13T13:04:52;2.83;;;1.60;;
18265;SDS011;9259;48.194;16.322;2023-07-13T13:07:23;2.72;;;1.55;;
18265;SDS011;9259;48.194;16.322;2023-07-13T13:09:51;4.60;;;1.70;;
18265;SDS011;9259;48.194;16.322;2023-07-13T13:12:20;4.32;;;2.00;;
18265;SDS011;9259;48.194;16.322;2023-07-13T13:14:49;2.75;;;1.40;;
18265;SDS011;9259;48.194;16.322;2023-07-13T13:17:19;3.60;;;2.10;;
18265;SDS011;9259;48.194;16.322;2023-07-13T13:19:49;1.63;;;1.40;;
18265;SDS011;9259;48.194;16.322;2023-07-13T13:22:18;2.13;;;1.35;;
18265;SDS011;9259;48.194;16.322;2023-07-13T13:24:48;2.15;;;1.20;;
18265;SDS011;9259;48.194;16.322;2023-07-13T13:27:16;4.10;;;1.67;;
18265;SDS011;9259;48.194;16.322;2023-07-13T13:29:46;4.25;;;2.17;;
18265;SDS011;9259;48.194;16.322;2023-07-13T13:32:17;2.90;;;1.60;;
18265;SDS011;9259;48.194;16.322;2023-07-13T13:34:45;1.73;;;1.25;;
18265;SDS011;9259;48.194;16.322;2023-07-13T13:37:16;5.60;;;1.45;;
18265;SDS011;9259;48.194;16.322;2023-07-13T13:39:47;3.70;;;1.83;;
18265;SDS011;9259;48.194;16.322;2023-07-13T13:42:16;1.38;;;1.27;;
18265;SDS011;9259;48.194;16.322;2023-07-13T13:44:46;5.00;;;1.75;;
18265;SDS011;9259;48.194;16.322;2023-07-13T13:47:19;4.57;;;1.60;;
18265;SDS011;9259;48.194;16.322;2023-07-13T13:49:56;2.22;;;1.48;;
18265;SDS011;9259;48.194;16.322;2023-07-13T13:52:26;3.80;;;1.65;;
18265;SDS011;9259;48.194;16.322;2023-07-13T13:54:55;2.45;;;1.50;;
18265;SDS011;9259;48.194;16.322;2023-07-13T13:57:23;3.90;;;1.73;;
18265;SDS011;9259;48.194;16.322;2023-07-13T13:59:51;2.58;;;1.50;;
18265;SDS011;9259;48.194;16.322;2023-07-13T14:02:22;2.30;;;1.38;;
18265;SDS011;9259;48.194;16.322;2023-07-13T14:04:53;4.05;;;1.20;;
18265;SDS011;9259;48.194;16.322;2023-07-13T14:07:23;5.05;;;1.65;;
18265;SDS011;9259;48.194;16.322;2023-07-13T14:09:52;2.40;;;1.60;;
18265;SDS011;9259;48.194;16.322;2023-07-13T14:12:22;4.63;;;1.50;;
18265;SDS011;9259;48.194;16.322;2023-07-13T14:14:51;2.38;;;1.60;;
18265;SDS011;9259;48.194;16.322;2023-07-13T14:17:20;4.00;;;1.63;;
18265;SDS011;9259;48.194;16.322;2023-07-13T14:19:52;4.20;;;1.90;;
18265;SDS011;9259;48.194;16.322;2023-07-13T14:22:23;2.30;;;1.50;;
18265;SDS011;9259;48.194;16.322;2023-07-13T14:24:52;2.20;;;1.52;;
18265;SDS011;9259;48.194;16.322;2023-07-13T14:27:25;1.92;;;1.38;;
18265;SDS011;9259;48.194;16.322;2023-07-13T14:29:53;3.17;;;1.65;;
18265;SDS011;9259;48.194;16.322;2023-07-13T14:32:21;1.85;;;1.38;;
18265;SDS011;9259;48.194;16.322;2023-07-13T14:34:49;5.25;;;2.03;;
18265;SDS011;9259;48.194;16.322;2023-07-13T14:37:17;5.40;;;1.75;;
18265;SDS011;9259;48.194;16.322;2023-07-13T14:39:51;4.00;;;1.70;;
18265;SDS011;9259;48.194;16.322;2023-07-13T14:42:22;3.50;;;1.50;;
18265;SDS011;9259;48.194;16.322;2023-07-13T14:44:51;3.72;;;1.73;;
18265;SDS011;9259;48.194;16.322;2023-07-13T14:47:20;2.35;;;1.45;;
18265;SDS011;9259;48.194;16.322;2023-07-13T14:49:48;3.13;;;1.38;;
18265;SDS011;9259;48.194;16.322;2023-07-13T14:52:17;2.97;;;1.60;;
18265;SDS011;9259;48.194;16.322;2023-07-13T14:54:47;2.83;;;1.50;;
18265;SDS011;9259;48.194;16.322;2023-07-13T14:57:17;2.35;;;1.30;;
18265;SDS011;9259;48.194;16.322;2023-07-13T14:59:47;2.05;;;1.23;;
18265;SDS011;9259;48.194;16.322;2023-07-13T15:02:17;3.00;;;1.70;;
18265;SDS011;9259;48.194;16.322;2023-07-13T15:04:55;5.18;;;1.60;;
18265;SDS011;9259;48.194;16.322;2023-07-13T15:07:24;2.80;;;1.60;;